createdAt,value
2023-02-06T00:02:45.104Z,101160.34
2023-02-06T00:06:57.780Z,101167.25
2023-02-06T00:11:14.719Z,101156.75
2023-02-06T00:15:28.259Z,101162.34
2023-02-06T00:19:41.096Z,101164.88
2023-02-06T00:24:00.652Z,101182.09
2023-02-06T00:28:15.562Z,101177.44
2023-02-06T00:32:28.014Z,101177.84
2023-02-06T00:36:40.563Z,101184.25
2023-02-06T00:40:53.534Z,101184.66
2023-02-06T00:45:06.516Z,101185.47
2023-02-06T00:49:19.127Z,101189.69
2023-02-06T00:53:31.542Z,101197.88
2023-02-06T00:57:43.917Z,101199.41
2023-02-06T01:01:56.448Z,101196.97
2023-02-06T01:06:09.409Z,101199.59
2023-02-06T01:10:22.169Z,101199.91
2023-02-06T01:14:34.440Z,101196.94
2023-02-06T01:18:47.409Z,101196.81
2023-02-06T01:22:59.857Z,101194.66
2023-02-06T01:27:12.187Z,101194.44
2023-02-06T01:31:30.090Z,101186.63
2023-02-06T01:35:42.400Z,101185.47
2023-02-06T01:39:54.761Z,101168.88
2023-02-06T01:44:24.363Z,101178.81
2023-02-06T01:48:54.265Z,101176.09
2023-02-06T01:53:08.009Z,101164.94
2023-02-06T01:57:21.535Z,101170.44
2023-02-06T02:01:34.497Z,101168.88
2023-02-06T02:05:51.010Z,101171.25
2023-02-06T02:10:05.343Z,101173.19
2023-02-06T02:14:18.418Z,101180.97
2023-02-06T02:19:08.655Z,101190.16
2023-02-06T02:23:48.027Z,101189.94
2023-02-06T02:28:49.758Z,101201.50
2023-02-06T02:33:11.016Z,101211.94
2023-02-06T02:37:36.180Z,101205.56
2023-02-06T02:41:57.389Z,101209.78
2023-02-06T02:46:29.316Z,101216.13
2023-02-06T02:50:43.189Z,101215.88
2023-02-06T02:54:56.141Z,101216.03
2023-02-06T02:59:24.081Z,101219.97
2023-02-06T03:03:40.685Z,101224.44
2023-02-06T03:08:08.152Z,101217.75
2023-02-06T03:12:35.746Z,101227.44
2023-02-06T03:16:53.065Z,101236.13
2023-02-06T03:21:08.855Z,101248.75
2023-02-06T03:25:32.248Z,101242.88
2023-02-06T03:29:47.674Z,101253.84
2023-02-06T03:34:08.280Z,101269.69
2023-02-06T03:38:21.001Z,101262.34
2023-02-06T03:42:36.124Z,101267.31
2023-02-06T03:46:50.457Z,101273.00
2023-02-06T03:51:08.570Z,101275.38
2023-02-06T03:55:23.770Z,101256.09
2023-02-06T03:59:36.315Z,101263.75
2023-02-06T04:03:49.738Z,101276.97
2023-02-06T04:08:02.122Z,101263.69
2023-02-06T04:12:15.716Z,101272.78
2023-02-06T04:16:28.160Z,101288.38
2023-02-06T04:20:41.191Z,101293.38
2023-02-06T04:24:53.529Z,101291.16
2023-02-06T04:29:06.184Z,101296.69
2023-02-06T04:33:18.811Z,101301.38
2023-02-06T04:37:31.240Z,101306.34
2023-02-06T04:41:43.503Z,101298.50
2023-02-06T04:45:55.858Z,101315.03
2023-02-06T04:50:08.729Z,101321.91
2023-02-06T04:54:20.972Z,101323.88
2023-02-06T04:58:34.313Z,101331.84
2023-02-06T05:02:46.778Z,101346.34
2023-02-06T05:06:59.007Z,101348.66
2023-02-06T05:11:11.539Z,101345.44
2023-02-06T05:15:23.877Z,101350.88
2023-02-06T05:19:36.292Z,101364.81
2023-02-06T05:23:48.600Z,101359.09
2023-02-06T05:28:00.980Z,101373.59
2023-02-06T05:32:13.399Z,101375.50
2023-02-06T05:36:25.931Z,101378.81
2023-02-06T05:40:39.343Z,101379.41
2023-02-06T05:44:51.695Z,101394.13
2023-02-06T05:49:05.377Z,101394.06
2023-02-06T05:53:18.139Z,101390.94
2023-02-06T05:57:30.434Z,101385.78
2023-02-06T06:01:42.888Z,101385.75
2023-02-06T06:05:56.014Z,101387.31
2023-02-06T06:10:09.275Z,101388.22
2023-02-06T06:14:21.888Z,101383.44
2023-02-06T06:18:35.582Z,101388.97
2023-02-06T06:22:48.045Z,101396.25
2023-02-06T06:27:00.433Z,101388.50
2023-02-06T06:31:13.545Z,101388.75
2023-02-06T06:35:27.247Z,101385.97
2023-02-06T06:39:39.720Z,101395.13
2023-02-06T06:43:54.844Z,101383.91
2023-02-06T06:48:07.242Z,101390.84
2023-02-06T06:52:24.984Z,101389.81
2023-02-06T06:56:38.126Z,101400.22
2023-02-06T07:00:53.940Z,101392.78
2023-02-06T07:05:07.416Z,101389.09
2023-02-06T07:09:19.786Z,101386.75
2023-02-06T07:13:32.152Z,101399.03
2023-02-06T07:17:44.465Z,101384.22
2023-02-06T07:21:56.914Z,101394.31
2023-02-06T07:26:10.922Z,101394.88
2023-02-06T07:30:23.645Z,101376.22
2023-02-06T07:34:36.331Z,101369.00
2023-02-06T07:38:49.145Z,101375.84
2023-02-06T07:43:01.534Z,101376.00
2023-02-06T07:47:19.648Z,101374.59
2023-02-06T07:51:32.058Z,101379.59
2023-02-06T07:55:44.439Z,101368.78
2023-02-06T07:59:56.751Z,101374.19
2023-02-06T08:04:09.334Z,101366.28
2023-02-06T08:08:21.697Z,101351.31
2023-02-06T08:12:34.002Z,101354.94
2023-02-06T08:16:46.618Z,101369.22
2023-02-06T08:21:06.289Z,101366.06
2023-02-06T08:25:18.718Z,101378.19
2023-02-06T08:29:32.480Z,101374.09
2023-02-06T08:33:45.786Z,101372.97
2023-02-06T08:38:01.209Z,101366.69
2023-02-06T08:42:13.733Z,101359.91
2023-02-06T08:46:29.900Z,101363.38
2023-02-06T08:50:44.835Z,101368.31
2023-02-06T08:54:57.401Z,101369.63
2023-02-06T08:59:11.200Z,101373.66
2023-02-06T09:03:23.569Z,101375.97
2023-02-06T09:07:35.948Z,101363.03
2023-02-06T09:11:48.418Z,101359.81
2023-02-06T09:16:00.906Z,101359.09
2023-02-06T09:20:13.621Z,101353.88
2023-02-06T09:24:27.560Z,101358.41
2023-02-06T09:28:40.226Z,101359.72
2023-02-06T09:32:52.689Z,101350.75
2023-02-06T09:37:06.395Z,101344.63
2023-02-06T09:41:31.533Z,101329.13
2023-02-06T09:45:43.945Z,101347.31
2023-02-06T09:50:25.441Z,101346.53
2023-02-06T09:55:07.197Z,101349.53
2023-02-06T09:59:45.278Z,101353.81
2023-02-06T10:04:25.715Z,101346.78
2023-02-06T10:08:43.537Z,101328.44
2023-02-06T10:13:05.493Z,101346.56
2023-02-06T10:17:32.966Z,101334.63
2023-02-06T10:22:03.940Z,101336.16
2023-02-06T10:26:18.689Z,101323.72
2023-02-06T10:31:09.388Z,101312.81
2023-02-06T10:36:11.171Z,101313.03
2023-02-06T10:40:41.951Z,101295.91
2023-02-06T10:45:19.252Z,101295.28
2023-02-06T10:49:41.133Z,101276.78
2023-02-06T10:54:04.905Z,101283.31
2023-02-06T10:58:30.772Z,101273.59
2023-02-06T11:03:06.636Z,101265.13
2023-02-06T11:07:46.841Z,101257.28
2023-02-06T11:12:01.448Z,101253.38
2023-02-06T11:16:26.172Z,101235.19
2023-02-06T11:20:42.110Z,101231.63
2023-02-06T11:25:01.130Z,101227.13
2023-02-06T11:29:37.294Z,101217.19
2023-02-06T11:33:57.142Z,101224.41
2023-02-06T11:38:21.639Z,101223.47
2023-02-06T11:42:36.591Z,101215.44
2023-02-06T11:46:49.095Z,101203.97
2023-02-06T11:51:02.296Z,101207.09
2023-02-06T11:55:26.936Z,101188.97
2023-02-06T11:59:54.200Z,101195.88
2023-02-06T12:04:23.946Z,101188.66
2023-02-06T12:08:48.623Z,101189.19
2023-02-06T12:13:20.463Z,101193.09
2023-02-06T12:17:47.548Z,101195.63
2023-02-06T12:22:18.264Z,101184.19
2023-02-06T12:26:33.998Z,101167.50
2023-02-06T12:30:55.937Z,101191.34
2023-02-06T12:35:34.612Z,101180.63
2023-02-06T12:39:48.469Z,101173.81
2023-02-06T12:44:18.163Z,101181.34
2023-02-06T12:48:44.695Z,101178.47
2023-02-06T12:53:05.172Z,101183.28
2023-02-06T12:57:28.529Z,101186.81
2023-02-06T13:01:53.275Z,101180.31
2023-02-06T13:06:19.067Z,101178.72
2023-02-06T13:10:31.385Z,101173.84
2023-02-06T13:14:50.726Z,101183.03
2023-02-06T13:19:03.870Z,101175.09
2023-02-06T13:23:16.746Z,101178.72
2023-02-06T13:27:39.867Z,101174.38
2023-02-06T13:32:11.334Z,101165.72
2023-02-06T13:36:53.662Z,101178.00
2023-02-06T13:41:16.042Z,101180.22
2023-02-06T13:45:51.168Z,101170.88
2023-02-06T13:50:47.871Z,101182.03
2023-02-06T13:55:14.840Z,101177.09
2023-02-06T13:59:34.977Z,101176.00
2023-02-06T14:03:48.834Z,101171.72
2023-02-06T14:08:20.680Z,101180.50
2023-02-06T14:12:44.769Z,101178.81
2023-02-06T14:17:28.896Z,101174.88
2023-02-06T14:21:57.031Z,101180.56
2023-02-06T14:26:16.416Z,101186.50
2023-02-06T14:30:54.010Z,101186.50
2023-02-06T14:35:31.500Z,101200.69
2023-02-06T14:39:49.627Z,101190.84
2023-02-06T14:44:02.570Z,101208.59
2023-02-06T14:48:31.024Z,101213.81
2023-02-06T14:52:45.890Z,101222.53
2023-02-06T14:57:29.656Z,101229.88
2023-02-06T15:01:44.288Z,101233.41
2023-02-06T15:06:07.719Z,101237.94
2023-02-06T15:10:29.045Z,101240.31
2023-02-06T15:14:58.015Z,101250.81
2023-02-06T15:19:21.933Z,101245.44
2023-02-06T15:23:56.094Z,101264.00
2023-02-06T15:28:23.326Z,101268.00
2023-02-06T15:32:40.055Z,101262.31
2023-02-06T15:36:54.204Z,101274.66
2023-02-06T15:41:08.885Z,101278.31
2023-02-06T15:45:29.164Z,101284.28
2023-02-06T15:49:44.479Z,101293.41
2023-02-06T15:54:21.596Z,101298.66
2023-02-06T15:58:34.988Z,101297.03
2023-02-06T16:02:47.500Z,101318.25
2023-02-06T16:07:24.829Z,101313.44
2023-02-06T16:11:46.450Z,101318.28
2023-02-06T16:16:17.220Z,101329.25
2023-02-06T16:20:32.589Z,101345.03
2023-02-06T16:24:45.582Z,101352.97
2023-02-06T16:29:16.691Z,101353.72
2023-02-06T16:33:39.809Z,101363.47
2023-02-06T16:37:54.886Z,101365.16
2023-02-06T16:42:07.496Z,101376.53
2023-02-06T16:46:23.704Z,101381.78
2023-02-06T16:50:37.302Z,101379.59
2023-02-06T16:54:50.446Z,101393.16
2023-02-06T16:59:02.726Z,101395.22
2023-02-06T17:03:17.616Z,101408.47
2023-02-06T17:07:32.103Z,101405.63
2023-02-06T17:11:44.570Z,101424.41
2023-02-06T17:15:56.954Z,101438.09
2023-02-06T17:20:31.144Z,101441.09
2023-02-06T17:24:44.199Z,101436.75
2023-02-06T17:28:56.523Z,101440.06
2023-02-06T17:33:09.561Z,101449.56
2023-02-06T17:37:22.017Z,101463.84
2023-02-06T17:41:36.634Z,101457.09
2023-02-06T17:45:49.896Z,101464.09
2023-02-06T17:50:02.396Z,101454.94
2023-02-06T17:54:15.792Z,101454.47
2023-02-06T17:58:29.685Z,101462.28
2023-02-06T18:02:43.491Z,101465.88
2023-02-06T18:06:55.941Z,101461.47
2023-02-06T18:11:22.185Z,101463.69
2023-02-06T18:15:34.610Z,101460.63
2023-02-06T18:19:48.664Z,101468.94
2023-02-06T18:24:00.970Z,101454.47
2023-02-06T18:28:17.875Z,101465.75
2023-02-06T18:32:30.903Z,101469.38
2023-02-06T18:36:43.248Z,101467.47
2023-02-06T18:40:55.709Z,101460.94
2023-02-06T18:45:08.851Z,101466.53
2023-02-06T18:49:21.840Z,101464.25
2023-02-06T18:53:34.206Z,101466.63
2023-02-06T18:57:46.744Z,101467.53
2023-02-06T19:01:59.176Z,101469.25
2023-02-06T19:06:17.568Z,101473.06
2023-02-06T19:10:30.105Z,101471.59
2023-02-06T19:14:42.499Z,101475.50
2023-02-06T19:18:54.897Z,101473.97
2023-02-06T19:23:07.208Z,101478.63
2023-02-06T19:27:23.915Z,101481.72
2023-02-06T19:31:39.341Z,101472.25
2023-02-06T19:35:52.561Z,101482.78
2023-02-06T19:40:06.614Z,101470.69
2023-02-06T19:44:19.728Z,101470.75
2023-02-06T19:48:32.655Z,101481.38
2023-02-06T19:52:45.257Z,101488.16
2023-02-06T19:57:00.810Z,101481.66
2023-02-06T20:01:16.043Z,101488.03
2023-02-06T20:05:28.542Z,101488.94
2023-02-06T20:09:49.570Z,101495.44
2023-02-06T20:14:02.294Z,101491.84
2023-02-06T20:18:15.051Z,101496.34
2023-02-06T20:22:27.750Z,101497.91
2023-02-06T20:26:42.899Z,101502.28
2023-02-06T20:30:55.398Z,101500.50
2023-02-06T20:35:07.990Z,101510.72
2023-02-06T20:39:21.254Z,101509.88
2023-02-06T20:43:34.484Z,101510.94
2023-02-06T20:47:47.669Z,101506.69
2023-02-06T20:52:00.136Z,101523.16
2023-02-06T20:56:15.592Z,101522.22
2023-02-06T21:00:28.153Z,101525.66
2023-02-06T21:04:40.632Z,101533.63
2023-02-06T21:08:57.594Z,101529.91
2023-02-06T21:13:09.956Z,101550.84
2023-02-06T21:17:22.201Z,101542.56
2023-02-06T21:21:35.485Z,101546.41
2023-02-06T21:25:55.396Z,101555.53
2023-02-06T21:30:08.980Z,101550.03
2023-02-06T21:34:23.895Z,101549.44
2023-02-06T21:38:37.010Z,101545.56
2023-02-06T21:42:49.853Z,101556.34
2023-02-06T21:47:02.183Z,101562.31
2023-02-06T21:51:16.975Z,101568.97
2023-02-06T21:55:32.897Z,101570.84
2023-02-06T21:59:46.101Z,101571.66
2023-02-06T22:03:59.064Z,101568.44
2023-02-06T22:08:11.615Z,101572.84
2023-02-06T22:12:23.952Z,101575.94
2023-02-06T22:16:36.959Z,101567.16
2023-02-06T22:20:49.353Z,101581.75
2023-02-06T22:25:01.764Z,101574.94
2023-02-06T22:29:16.284Z,101579.03
2023-02-06T22:33:28.566Z,101589.47
2023-02-06T22:37:43.067Z,101585.50
2023-02-06T22:41:56.575Z,101583.50
2023-02-06T22:46:09.888Z,101590.69
2023-02-06T22:50:22.565Z,101595.00
2023-02-06T22:54:34.953Z,101600.38
2023-02-06T22:58:48.660Z,101605.06
2023-02-06T23:03:01.026Z,101609.97
2023-02-06T23:07:13.335Z,101598.25
2023-02-06T23:11:26.212Z,101594.84
2023-02-06T23:15:41.899Z,101597.88
2023-02-06T23:19:54.472Z,101604.34
2023-02-06T23:24:08.613Z,101618.22
2023-02-06T23:28:22.520Z,101609.69
2023-02-06T23:32:34.876Z,101609.56
2023-02-06T23:36:47.679Z,101609.19
2023-02-06T23:41:09.063Z,101609.31
2023-02-06T23:45:21.595Z,101621.63
2023-02-06T23:49:34.110Z,101622.28
2023-02-06T23:53:47.359Z,101610.81
2023-02-06T23:57:59.838Z,101614.28
